»·PEaware :: N910GE KSBD-KEMT

N910GE :: KSBD-KEMT

FLIGHT INFORMATION

Flight Status: Arrived
Operator: Privately registered:
United States
More flights under this callsign
Pilot: Jeffrey V. (11717)
Aircraft: SOCATA TBM-900
(TBM9)
More flights by this aircraft type
Origin: KSBD San Bernardino Intl
United States
Destination: KEMT El Monte
United States
More flights between these airports :: More routes between these airports
Route:
File this flight plan on PilotEdge
Remarks: CAT 7
Altitude:
(Current/Filed)
4,500ft
Speed:
(Current/Filed)
150kts
Departed: 08-Nov-18 01:32 PM
Arrived: 08-Nov-18 01:56 PM
Distance/Time
Traveled:
40nm/0:24
Distance/Time
To Go:
Arrived

Flight Plot

Page will automatically refresh every two minutes.


Map Options




Map Legend


Flown Route
Filed Route
Departure Airport
Arrival Airport
Navaid (VOR, NDB)
Fix

Horizontal Profiles

Position Reports

Time Latitude Longitude Heading Altitude Ground
Speed
08-Nov-18 12:22 34.104466 -117.245819 285 1099ft 0kts
08-Nov-18 12:23 34.104466 -117.245819 285 1099ft 0kts
08-Nov-18 12:24 34.104466 -117.245819 285 1099ft 0kts
08-Nov-18 12:25 34.104466 -117.245819 285 1099ft 0kts
08-Nov-18 12:26 34.104466 -117.245819 285 1099ft 0kts
08-Nov-18 12:27 34.104466 -117.245819 285 1099ft 0kts
08-Nov-18 12:28 34.104466 -117.245819 285 1099ft 0kts
08-Nov-18 12:29 34.104466 -117.245819 285 1099ft 0kts
08-Nov-18 12:30 34.104466 -117.245819 285 1099ft 0kts
08-Nov-18 12:31 34.104466 -117.245819 285 1099ft 0kts
08-Nov-18 12:32 34.104466 -117.245819 285 1099ft 0kts
08-Nov-18 12:33 34.104466 -117.245820 285 1099ft 0kts
08-Nov-18 12:34 34.104466 -117.245820 285 1099ft 0kts
08-Nov-18 12:35 34.104466 -117.245820 285 1099ft 0kts
08-Nov-18 12:36 34.104466 -117.245820 285 1099ft 0kts
08-Nov-18 12:37 34.104466 -117.245820 285 1099ft 0kts
08-Nov-18 12:38 34.104466 -117.245820 285 1099ft 0kts
08-Nov-18 12:39 34.104466 -117.245820 285 1099ft 0kts
08-Nov-18 12:40 34.104466 -117.245820 285 1099ft 0kts
08-Nov-18 12:41 34.104466 -117.245820 285 1099ft 0kts
08-Nov-18 12:42 34.104466 -117.245820 285 1099ft 0kts
08-Nov-18 12:43 34.104466 -117.245820 285 1099ft 0kts
08-Nov-18 12:44 34.104466 -117.245820 285 1099ft 0kts
08-Nov-18 12:45 34.104466 -117.245820 285 1099ft 0kts
08-Nov-18 12:46 34.104466 -117.245820 285 1099ft 0kts
08-Nov-18 12:47 34.104466 -117.245820 285 1099ft 0kts
08-Nov-18 12:48 34.104466 -117.245820 285 1099ft 0kts
08-Nov-18 12:49 34.104466 -117.245820 285 1099ft 0kts
08-Nov-18 12:50 34.104466 -117.245820 285 1099ft 0kts
08-Nov-18 12:51 34.104466 -117.245820 285 1099ft 0kts
08-Nov-18 12:52 34.104466 -117.245820 285 1099ft 0kts
08-Nov-18 12:53 34.104466 -117.245820 285 1099ft 0kts
08-Nov-18 12:54 34.104466 -117.245820 285 1099ft 0kts
08-Nov-18 12:55 34.104466 -117.245820 285 1099ft 0kts
08-Nov-18 12:56 34.104466 -117.245820 285 1099ft 0kts
08-Nov-18 12:57 34.104466 -117.245820 285 1099ft 0kts
08-Nov-18 12:58 34.104466 -117.245820 285 1099ft 0kts
08-Nov-18 12:59 34.104466 -117.245820 285 1099ft 0kts
08-Nov-18 13:00 34.104466 -117.245820 285 1099ft 0kts
08-Nov-18 13:01 34.104466 -117.245820 285 1099ft 0kts
08-Nov-18 13:02 34.104466 -117.245820 285 1099ft 0kts
08-Nov-18 13:03 34.104466 -117.245820 285 1099ft 0kts
08-Nov-18 13:04 34.104466 -117.245820 285 1099ft 0kts
08-Nov-18 13:05 34.104466 -117.245820 285 1099ft 0kts
08-Nov-18 13:06 34.104466 -117.245820 285 1099ft 0kts
08-Nov-18 13:07 34.104466 -117.245820 285 1099ft 0kts
08-Nov-18 13:08 34.104466 -117.245820 285 1099ft 0kts
08-Nov-18 13:09 34.104466 -117.245820 285 1099ft 0kts
08-Nov-18 13:10 34.104466 -117.245820 285 1099ft 0kts
08-Nov-18 13:11 34.104466 -117.245820 285 1099ft 0kts
08-Nov-18 13:12 34.104466 -117.245820 285 1099ft 0kts
08-Nov-18 13:13 34.104466 -117.245820 285 1099ft 0kts
08-Nov-18 13:14 34.104466 -117.245820 285 1099ft 0kts
08-Nov-18 13:15 34.104466 -117.245820 285 1099ft 0kts
08-Nov-18 13:16 34.104466 -117.245820 285 1099ft 0kts
08-Nov-18 13:17 34.104466 -117.245820 285 1099ft 0kts
08-Nov-18 13:18 34.104466 -117.245820 285 1099ft 0kts
08-Nov-18 13:19 34.104466 -117.245820 285 1099ft 0kts
08-Nov-18 13:20 34.104466 -117.245820 285 1099ft 0kts
08-Nov-18 13:21 34.104466 -117.245820 285 1099ft 0kts
08-Nov-18 13:22 34.104466 -117.245820 285 1099ft 0kts
08-Nov-18 13:23 34.104470 -117.245866 263 1099ft 1kts
08-Nov-18 13:24 34.103823 -117.245420 172 1100ft 9kts
08-Nov-18 13:25 34.102343 -117.243029 138 1104ft 10kts
08-Nov-18 13:26 34.100147 -117.242025 178 1103ft 8kts
08-Nov-18 13:27 34.097356 -117.241939 178 1101ft 5kts
08-Nov-18 13:28 34.094837 -117.242433 253 1099ft 14kts
08-Nov-18 13:29 34.093651 -117.246652 249 1090ft 10kts
08-Nov-18 13:30 34.092773 -117.249640 250 1085ft 8kts
08-Nov-18 13:31 34.091596 -117.250763 163 1082ft 0kts
08-Nov-18 13:32 34.091549 -117.250746 163 1082ft 0kts
08-Nov-18 13:33 34.091549 -117.250746 163 1082ft 0kts
08-Nov-18 13:34 34.091180 -117.250462 138 1082ft 5kts
08-Nov-18 13:35 34.094104 -117.238919 71 1149ft 117kts
08-Nov-18 13:36 34.103449 -117.193019 80 2328ft 150kts
08-Nov-18 13:37 34.078027 -117.186989 254 3618ft 139kts
08-Nov-18 13:38 34.066846 -117.233614 255 4518ft 172kts
08-Nov-18 13:39 34.053268 -117.289774 255 4471ft 164kts
08-Nov-18 13:40 34.051916 -117.337750 334 4476ft 142kts
08-Nov-18 13:41 34.069155 -117.375320 325 4478ft 138kts
08-Nov-18 13:42 34.095998 -117.401336 16 4485ft 137kts
08-Nov-18 13:43 34.107950 -117.432711 250 4483ft 142kts
08-Nov-18 13:44 34.093177 -117.477817 250 4470ft 144kts
08-Nov-18 13:45 34.078892 -117.523350 261 4463ft 143kts
08-Nov-18 13:46 34.071984 -117.570943 266 4458ft 142kts
08-Nov-18 13:47 34.067117 -117.617890 266 4453ft 142kts
08-Nov-18 13:48 34.062149 -117.665011 265 4455ft 142kts
08-Nov-18 13:49 34.057339 -117.712834 270 4457ft 142kts
08-Nov-18 13:50 34.057392 -117.760355 272 4452ft 137kts
08-Nov-18 13:51 34.058811 -117.805059 274 4456ft 130kts
08-Nov-18 13:52 34.060428 -117.847094 274 3906ft 110kts
08-Nov-18 13:53 34.066816 -117.884187 286 3493ft 129kts
08-Nov-18 13:54 34.077442 -117.930278 286 3477ft 149kts
08-Nov-18 13:55 34.074704 -117.980833 249 2795ft 172kts
08-Nov-18 13:56 34.078538 -118.031322 5 1795ft 137kts
08-Nov-18 13:57 34.108969 -118.008155 316 822ft 84kts
08-Nov-18 13:58 34.097960 -118.027189 206 463ft 86kts
08-Nov-18 13:59 34.083166 -118.036316 138 283ft 8kts
08-Nov-18 14:00 34.083080 -118.036119 109 284ft 0kts
08-Nov-18 14:01 34.082939 -118.035508 83 285ft 5kts
08-Nov-18 14:02 34.082869 -118.035017 222 287ft 0kts
08-Nov-18 14:03 34.082869 -118.035016 222 287ft 0kts
08-Nov-18 14:04 34.082869 -118.035016 222 287ft 0kts
08-Nov-18 14:05 34.082869 -118.035016 222 287ft 0kts
08-Nov-18 14:06 34.082869 -118.035016 222 287ft 0kts
08-Nov-18 14:07 34.082869 -118.035016 222 287ft 0kts
08-Nov-18 14:08 34.082869 -118.035016 222 287ft 0kts
08-Nov-18 14:09 34.082869 -118.035016 222 287ft 0kts
08-Nov-18 14:10 34.082869 -118.035016 222 287ft 0kts
08-Nov-18 14:11 34.082869 -118.035016 222 287ft 0kts
08-Nov-18 14:12 34.082869 -118.035016 222 287ft 0kts
08-Nov-18 14:13 34.082869 -118.035016 222 287ft 0kts

Navigation Log

Ident Type
1. KSBD Airport
2. KEMT Airport